sensor_id;sensor_type;location;lat;lon;timestamp;P1;durP1;ratioP1;P2;durP2;ratioP2
40971;SDS011;26701;47.408;19.174;2023-04-03T00:02:20;9.73;;;4.68;;
40971;SDS011;26701;47.408;19.174;2023-04-03T00:04:47;10.15;;;4.50;;
40971;SDS011;26701;47.408;19.174;2023-04-03T00:07:13;10.55;;;4.60;;
40971;SDS011;26701;47.408;19.174;2023-04-03T00:09:40;9.05;;;3.97;;
40971;SDS011;26701;47.408;19.174;2023-04-03T00:12:06;7.43;;;4.07;;
40971;SDS011;26701;47.408;19.174;2023-04-03T00:14:32;9.13;;;4.40;;
40971;SDS011;26701;47.408;19.174;2023-04-03T00:16:58;9.70;;;4.05;;
40971;SDS011;26701;47.408;19.174;2023-04-03T00:19:24;8.63;;;4.25;;
40971;SDS011;26701;47.408;19.174;2023-04-03T00:21:50;9.65;;;4.25;;
40971;SDS011;26701;47.408;19.174;2023-04-03T00:24:18;10.40;;;4.22;;
40971;SDS011;26701;47.408;19.174;2023-04-03T00:26:44;11.10;;;4.93;;
40971;SDS011;26701;47.408;19.174;2023-04-03T00:29:12;9.35;;;4.18;;
40971;SDS011;26701;47.408;19.174;2023-04-03T00:31:38;8.23;;;4.00;;
40971;SDS011;26701;47.408;19.174;2023-04-03T00:34:04;12.35;;;5.22;;
40971;SDS011;26701;47.408;19.174;2023-04-03T00:36:30;10.38;;;5.38;;
40971;SDS011;26701;47.408;19.174;2023-04-03T00:38:56;9.23;;;4.15;;
40971;SDS011;26701;47.408;19.174;2023-04-03T00:41:23;13.10;;;5.47;;
40971;SDS011;26701;47.408;19.174;2023-04-03T00:43:49;9.35;;;4.90;;
40971;SDS011;26701;47.408;19.174;2023-04-03T00:46:15;11.30;;;5.15;;
40971;SDS011;26701;47.408;19.174;2023-04-03T00:48:45;11.85;;;5.20;;
40971;SDS011;26701;47.408;19.174;2023-04-03T00:51:30;9.88;;;4.43;;
40971;SDS011;26701;47.408;19.174;2023-04-03T00:54:00;11.23;;;5.75;;
40971;SDS011;26701;47.408;19.174;2023-04-03T00:56:30;12.00;;;4.97;;
40971;SDS011;26701;47.408;19.174;2023-04-03T00:58:59;9.25;;;5.25;;
40971;SDS011;26701;47.408;19.174;2023-04-03T01:01:31;8.57;;;4.50;;
40971;SDS011;26701;47.408;19.174;2023-04-03T01:04:00;11.55;;;4.55;;
40971;SDS011;26701;47.408;19.174;2023-04-03T01:06:29;12.13;;;5.90;;
40971;SDS011;26701;47.408;19.174;2023-04-03T01:09:04;11.77;;;4.97;;
40971;SDS011;26701;47.408;19.174;2023-04-03T01:11:30;10.00;;;5.30;;
40971;SDS011;26701;47.408;19.174;2023-04-03T01:13:57;10.02;;;5.40;;
40971;SDS011;26701;47.408;19.174;2023-04-03T01:16:24;12.80;;;5.28;;
40971;SDS011;26701;47.408;19.174;2023-04-03T01:18:50;13.07;;;5.95;;
40971;SDS011;26701;47.408;19.174;2023-04-03T01:21:23;10.27;;;4.97;;
40971;SDS011;26701;47.408;19.174;2023-04-03T01:23:58;10.43;;;5.20;;
40971;SDS011;26701;47.408;19.174;2023-04-03T01:26:26;11.35;;;5.75;;
40971;SDS011;26701;47.408;19.174;2023-04-03T01:28:53;10.80;;;5.55;;
40971;SDS011;26701;47.408;19.174;2023-04-03T01:31:28;11.93;;;4.72;;
40971;SDS011;26701;47.408;19.174;2023-04-03T01:34:00;9.20;;;4.80;;
40971;SDS011;26701;47.408;19.174;2023-04-03T01:36:30;9.98;;;5.07;;
40971;SDS011;26701;47.408;19.174;2023-04-03T01:38:57;9.05;;;4.85;;
40971;SDS011;26701;47.408;19.174;2023-04-03T01:41:24;11.45;;;5.25;;
40971;SDS011;26701;47.408;19.174;2023-04-03T01:43:54;9.85;;;5.18;;
40971;SDS011;26701;47.408;19.174;2023-04-03T01:46:20;10.90;;;4.95;;
40971;SDS011;26701;47.408;19.174;2023-04-03T01:48:47;11.77;;;5.60;;
40971;SDS011;26701;47.408;19.174;2023-04-03T01:51:13;9.13;;;4.55;;
40971;SDS011;26701;47.408;19.174;2023-04-03T01:53:40;10.55;;;5.22;;
40971;SDS011;26701;47.408;19.174;2023-04-03T01:56:06;11.52;;;5.13;;
40971;SDS011;26701;47.408;19.174;2023-04-03T01:58:33;9.48;;;4.65;;
40971;SDS011;26701;47.408;19.174;2023-04-03T02:00:59;10.30;;;4.80;;
40971;SDS011;26701;47.408;19.174;2023-04-03T02:03:27;10.87;;;5.27;;
40971;SDS011;26701;47.408;19.174;2023-04-03T02:05:54;13.45;;;5.45;;
40971;SDS011;26701;47.408;19.174;2023-04-03T02:08:20;10.77;;;5.25;;
40971;SDS011;26701;47.408;19.174;2023-04-03T02:10:47;10.90;;;4.72;;
40971;SDS011;26701;47.408;19.174;2023-04-03T02:13:13;9.90;;;4.85;;
40971;SDS011;26701;47.408;19.174;2023-04-03T02:15:40;13.65;;;4.72;;
40971;SDS011;26701;47.408;19.174;2023-04-03T02:18:06;8.88;;;4.85;;
40971;SDS011;26701;47.408;19.174;2023-04-03T02:20:33;9.35;;;4.60;;
40971;SDS011;26701;47.408;19.174;2023-04-03T02:22:59;10.15;;;5.38;;
40971;SDS011;26701;47.408;19.174;2023-04-03T02:25:26;10.10;;;4.80;;
40971;SDS011;26701;47.408;19.174;2023-04-03T02:27:52;10.05;;;4.65;;
40971;SDS011;26701;47.408;19.174;2023-04-03T02:30:18;7.43;;;4.53;;
40971;SDS011;26701;47.408;19.174;2023-04-03T02:32:44;9.73;;;4.25;;
40971;SDS011;26701;47.408;19.174;2023-04-03T02:35:11;7.60;;;3.78;;
40971;SDS011;26701;47.408;19.174;2023-04-03T02:37:39;8.73;;;4.45;;
40971;SDS011;26701;47.408;19.174;2023-04-03T02:40:06;9.77;;;4.93;;
40971;SDS011;26701;47.408;19.174;2023-04-03T02:42:34;9.60;;;4.75;;
40971;SDS011;26701;47.408;19.174;2023-04-03T02:45:02;7.38;;;3.95;;
40971;SDS011;26701;47.408;19.174;2023-04-03T02:47:28;10.18;;;4.50;;
40971;SDS011;26701;47.408;19.174;2023-04-03T02:49:54;10.50;;;5.03;;
40971;SDS011;26701;47.408;19.174;2023-04-03T02:52:20;9.45;;;4.80;;
40971;SDS011;26701;47.408;19.174;2023-04-03T02:54:48;9.52;;;4.45;;
40971;SDS011;26701;47.408;19.174;2023-04-03T02:57:14;7.90;;;3.83;;
40971;SDS011;26701;47.408;19.174;2023-04-03T02:59:40;8.90;;;4.22;;
40971;SDS011;26701;47.408;19.174;2023-04-03T03:02:08;7.88;;;3.85;;
40971;SDS011;26701;47.408;19.174;2023-04-03T03:04:34;11.18;;;4.78;;
40971;SDS011;26701;47.408;19.174;2023-04-03T03:07:01;7.32;;;3.50;;
40971;SDS011;26701;47.408;19.174;2023-04-03T03:09:27;9.13;;;4.25;;
40971;SDS011;26701;47.408;19.174;2023-04-03T03:11:54;8.23;;;4.28;;
40971;SDS011;26701;47.408;19.174;2023-04-03T03:14:21;8.27;;;4.25;;
40971;SDS011;26701;47.408;19.174;2023-04-03T03:16:47;6.85;;;3.72;;
40971;SDS011;26701;47.408;19.174;2023-04-03T03:19:13;10.65;;;5.03;;
40971;SDS011;26701;47.408;19.174;2023-04-03T03:21:39;6.47;;;3.83;;
40971;SDS011;26701;47.408;19.174;2023-04-03T03:24:06;9.25;;;4.10;;
40971;SDS011;26701;47.408;19.174;2023-04-03T03:26:32;10.25;;;4.10;;
40971;SDS011;26701;47.408;19.174;2023-04-03T03:29:00;9.93;;;4.95;;
40971;SDS011;26701;47.408;19.174;2023-04-03T03:31:27;7.43;;;3.60;;
40971;SDS011;26701;47.408;19.174;2023-04-03T03:33:54;8.40;;;4.30;;
40971;SDS011;26701;47.408;19.174;2023-04-03T03:36:21;6.90;;;3.95;;
40971;SDS011;26701;47.408;19.174;2023-04-03T03:38:47;11.95;;;5.28;;
40971;SDS011;26701;47.408;19.174;2023-04-03T03:41:13;8.07;;;4.25;;
40971;SDS011;26701;47.408;19.174;2023-04-03T03:43:42;6.63;;;3.30;;
40971;SDS011;26701;47.408;19.174;2023-04-03T03:46:09;8.23;;;3.72;;
40971;SDS011;26701;47.408;19.174;2023-04-03T03:48:35;9.38;;;4.47;;
40971;SDS011;26701;47.408;19.174;2023-04-03T03:51:01;8.07;;;4.45;;
40971;SDS011;26701;47.408;19.174;2023-04-03T03:53:32;15.10;;;5.85;;
40971;SDS011;26701;47.408;19.174;2023-04-03T03:56:03;8.80;;;4.38;;
40971;SDS011;26701;47.408;19.174;2023-04-03T03:58:30;9.02;;;4.40;;
40971;SDS011;26701;47.408;19.174;2023-04-03T04:01:00;31.67;;;11.73;;
40971;SDS011;26701;47.408;19.174;2023-04-03T04:03:27;15.82;;;7.85;;
40971;SDS011;26701;47.408;19.174;2023-04-03T04:05:54;21.60;;;9.70;;
40971;SDS011;26701;47.408;19.174;2023-04-03T04:08:20;18.73;;;10.60;;
40971;SDS011;26701;47.408;19.174;2023-04-03T04:10:47;11.77;;;6.75;;
40971;SDS011;26701;47.408;19.174;2023-04-03T04:13:15;10.50;;;5.20;;
40971;SDS011;26701;47.408;19.174;2023-04-03T04:15:41;8.55;;;4.22;;
40971;SDS011;26701;47.408;19.174;2023-04-03T04:18:08;7.60;;;3.83;;
40971;SDS011;26701;47.408;19.174;2023-04-03T04:20:34;12.75;;;5.25;;
40971;SDS011;26701;47.408;19.174;2023-04-03T04:23:01;12.48;;;6.88;;
40971;SDS011;26701;47.408;19.174;2023-04-03T04:25:29;9.88;;;6.57;;
40971;SDS011;26701;47.408;19.174;2023-04-03T04:27:55;10.20;;;6.25;;
40971;SDS011;26701;47.408;19.174;2023-04-03T04:30:21;13.20;;;5.55;;
40971;SDS011;26701;47.408;19.174;2023-04-03T04:32:48;7.30;;;3.78;;
40971;SDS011;26701;47.408;19.174;2023-04-03T04:35:15;7.38;;;4.05;;
40971;SDS011;26701;47.408;19.174;2023-04-03T04:37:43;10.43;;;4.80;;
40971;SDS011;26701;47.408;19.174;2023-04-03T04:40:10;10.30;;;4.65;;
40971;SDS011;26701;47.408;19.174;2023-04-03T04:42:36;12.68;;;4.68;;
40971;SDS011;26701;47.408;19.174;2023-04-03T04:45:03;12.27;;;4.55;;
40971;SDS011;26701;47.408;19.174;2023-04-03T04:47:29;12.93;;;5.35;;
40971;SDS011;26701;47.408;19.174;2023-04-03T04:49:56;13.52;;;5.38;;
40971;SDS011;26701;47.408;19.174;2023-04-03T04:52:22;16.42;;;6.05;;
40971;SDS011;26701;47.408;19.174;2023-04-03T04:54:48;11.30;;;4.70;;
40971;SDS011;26701;47.408;19.174;2023-04-03T04:57:15;16.92;;;6.93;;
40971;SDS011;26701;47.408;19.174;2023-04-03T04:59:41;13.48;;;5.60;;
40971;SDS011;26701;47.408;19.174;2023-04-03T05:02:07;10.20;;;5.13;;
40971;SDS011;26701;47.408;19.174;2023-04-03T05:04:35;13.82;;;5.95;;
40971;SDS011;26701;47.408;19.174;2023-04-03T05:07:07;11.82;;;4.45;;
40971;SDS011;26701;47.408;19.174;2023-04-03T05:09:35;10.25;;;4.68;;
40971;SDS011;26701;47.408;19.174;2023-04-03T05:12:01;11.18;;;5.00;;
40971;SDS011;26701;47.408;19.174;2023-04-03T05:14:34;11.70;;;4.82;;
40971;SDS011;26701;47.408;19.174;2023-04-03T05:17:04;17.67;;;6.43;;
40971;SDS011;26701;47.408;19.174;2023-04-03T05:19:34;16.90;;;6.55;;
40971;SDS011;26701;47.408;19.174;2023-04-03T05:22:01;12.40;;;4.38;;
40971;SDS011;26701;47.408;19.174;2023-04-03T05:24:28;15.43;;;6.13;;
40971;SDS011;26701;47.408;19.174;2023-04-03T05:26:55;10.80;;;5.82;;
40971;SDS011;26701;47.408;19.174;2023-04-03T05:29:21;10.10;;;4.78;;
40971;SDS011;26701;47.408;19.174;2023-04-03T05:31:49;12.48;;;5.18;;
40971;SDS011;26701;47.408;19.174;2023-04-03T05:34:16;12.23;;;5.53;;
40971;SDS011;26701;47.408;19.174;2023-04-03T05:36:44;16.75;;;6.18;;
40971;SDS011;26701;47.408;19.174;2023-04-03T05:39:12;10.65;;;4.82;;
40971;SDS011;26701;47.408;19.174;2023-04-03T05:44:07;12.55;;;4.88;;
40971;SDS011;26701;47.408;19.174;2023-04-03T05:46:33;12.07;;;5.40;;
40971;SDS011;26701;47.408;19.174;2023-04-03T05:49:03;15.00;;;6.57;;
40971;SDS011;26701;47.408;19.174;2023-04-03T05:51:35;16.60;;;5.70;;
40971;SDS011;26701;47.408;19.174;2023-04-03T05:54:28;13.45;;;6.07;;
40971;SDS011;26701;47.408;19.174;2023-04-03T05:57:15;10.02;;;4.50;;
40971;SDS011;26701;47.408;19.174;2023-04-03T05:59:42;11.88;;;4.85;;
40971;SDS011;26701;47.408;19.174;2023-04-03T06:02:12;10.05;;;4.70;;
40971;SDS011;26701;47.408;19.174;2023-04-03T06:04:39;12.73;;;5.38;;
40971;SDS011;26701;47.408;19.174;2023-04-03T06:07:06;13.80;;;5.15;;
40971;SDS011;26701;47.408;19.174;2023-04-03T06:09:35;16.88;;;6.28;;
40971;SDS011;26701;47.408;19.174;2023-04-03T06:12:01;15.18;;;5.95;;
40971;SDS011;26701;47.408;19.174;2023-04-03T06:14:28;11.88;;;5.38;;
40971;SDS011;26701;47.408;19.174;2023-04-03T06:16:55;12.70;;;5.85;;
40971;SDS011;26701;47.408;19.174;2023-04-03T06:19:21;14.75;;;6.13;;
40971;SDS011;26701;47.408;19.174;2023-04-03T06:21:51;11.73;;;5.78;;
40971;SDS011;26701;47.408;19.174;2023-04-03T06:24:17;13.95;;;5.57;;
40971;SDS011;26701;47.408;19.174;2023-04-03T06:26:45;12.45;;;5.00;;
40971;SDS011;26701;47.408;19.174;2023-04-03T06:29:11;10.27;;;4.80;;
40971;SDS011;26701;47.408;19.174;2023-04-03T06:31:37;11.60;;;5.60;;
40971;SDS011;26701;47.408;19.174;2023-04-03T06:34:04;13.50;;;5.13;;
40971;SDS011;26701;47.408;19.174;2023-04-03T06:36:31;11.57;;;5.20;;
40971;SDS011;26701;47.408;19.174;2023-04-03T06:39:00;14.35;;;6.05;;
40971;SDS011;26701;47.408;19.174;2023-04-03T06:41:28;14.35;;;5.05;;
40971;SDS011;26701;47.408;19.174;2023-04-03T06:43:54;8.32;;;3.90;;
40971;SDS011;26701;47.408;19.174;2023-04-03T06:46:22;15.47;;;6.13;;
40971;SDS011;26701;47.408;19.174;2023-04-03T06:48:48;13.57;;;6.30;;
40971;SDS011;26701;47.408;19.174;2023-04-03T06:51:19;10.95;;;4.78;;
40971;SDS011;26701;47.408;19.174;2023-04-03T06:53:49;11.18;;;4.65;;
40971;SDS011;26701;47.408;19.174;2023-04-03T06:56:15;8.77;;;4.32;;
40971;SDS011;26701;47.408;19.174;2023-04-03T06:58:41;10.65;;;4.65;;
40971;SDS011;26701;47.408;19.174;2023-04-03T07:01:08;13.57;;;6.22;;
40971;SDS011;26701;47.408;19.174;2023-04-03T07:03:36;10.40;;;4.97;;
40971;SDS011;26701;47.408;19.174;2023-04-03T07:06:02;12.80;;;5.80;;
40971;SDS011;26701;47.408;19.174;2023-04-03T07:08:29;13.10;;;6.30;;
40971;SDS011;26701;47.408;19.174;2023-04-03T07:10:55;17.50;;;6.63;;
40971;SDS011;26701;47.408;19.174;2023-04-03T07:13:21;18.23;;;6.60;;
40971;SDS011;26701;47.408;19.174;2023-04-03T07:15:47;9.57;;;4.47;;
40971;SDS011;26701;47.408;19.174;2023-04-03T07:18:14;12.27;;;5.82;;
40971;SDS011;26701;47.408;19.174;2023-04-03T07:20:40;10.85;;;4.65;;
40971;SDS011;26701;47.408;19.174;2023-04-03T07:23:06;9.68;;;4.22;;
40971;SDS011;26701;47.408;19.174;2023-04-03T07:25:32;8.30;;;3.97;;
40971;SDS011;26701;47.408;19.174;2023-04-03T07:27:58;10.52;;;4.68;;
40971;SDS011;26701;47.408;19.174;2023-04-03T07:30:24;8.00;;;3.50;;
40971;SDS011;26701;47.408;19.174;2023-04-03T07:32:51;8.25;;;4.22;;
40971;SDS011;26701;47.408;19.174;2023-04-03T07:35:17;8.32;;;4.85;;
40971;SDS011;26701;47.408;19.174;2023-04-03T07:37:44;7.90;;;4.32;;
40971;SDS011;26701;47.408;19.174;2023-04-03T07:40:10;13.55;;;5.13;;
40971;SDS011;26701;47.408;19.174;2023-04-03T07:42:36;12.50;;;5.63;;
40971;SDS011;26701;47.408;19.174;2023-04-03T07:45:03;10.80;;;4.75;;
40971;SDS011;26701;47.408;19.174;2023-04-03T07:47:29;6.82;;;3.25;;
40971;SDS011;26701;47.408;19.174;2023-04-03T07:49:56;8.98;;;4.05;;
40971;SDS011;26701;47.408;19.174;2023-04-03T07:52:23;10.30;;;4.45;;
40971;SDS011;26701;47.408;19.174;2023-04-03T07:54:49;8.65;;;3.88;;
40971;SDS011;26701;47.408;19.174;2023-04-03T07:57:15;6.28;;;3.72;;
40971;SDS011;26701;47.408;19.174;2023-04-03T07:59:42;6.13;;;2.83;;
40971;SDS011;26701;47.408;19.174;2023-04-03T08:02:09;7.82;;;3.60;;
40971;SDS011;26701;47.408;19.174;2023-04-03T08:04:36;8.05;;;3.58;;
40971;SDS011;26701;47.408;19.174;2023-04-03T08:07:02;10.18;;;4.05;;
40971;SDS011;26701;47.408;19.174;2023-04-03T08:09:28;13.07;;;4.80;;
40971;SDS011;26701;47.408;19.174;2023-04-03T08:11:54;8.07;;;3.72;;
40971;SDS011;26701;47.408;19.174;2023-04-03T08:14:20;10.98;;;4.15;;
40971;SDS011;26701;47.408;19.174;2023-04-03T08:16:47;8.95;;;3.60;;
40971;SDS011;26701;47.408;19.174;2023-04-03T08:19:13;7.95;;;3.38;;
40971;SDS011;26701;47.408;19.174;2023-04-03T08:21:41;11.43;;;4.75;;
40971;SDS011;26701;47.408;19.174;2023-04-03T08:24:08;12.38;;;4.88;;
40971;SDS011;26701;47.408;19.174;2023-04-03T08:26:36;5.67;;;2.47;;
40971;SDS011;26701;47.408;19.174;2023-04-03T08:29:02;7.93;;;4.07;;
40971;SDS011;26701;47.408;19.174;2023-04-03T08:31:28;6.40;;;2.92;;
40971;SDS011;26701;47.408;19.174;2023-04-03T08:33:56;5.72;;;3.05;;
40971;SDS011;26701;47.408;19.174;2023-04-03T08:36:23;7.07;;;3.17;;
40971;SDS011;26701;47.408;19.174;2023-04-03T08:38:50;5.30;;;3.03;;
40971;SDS011;26701;47.408;19.174;2023-04-03T08:41:24;8.10;;;3.38;;
40971;SDS011;26701;47.408;19.174;2023-04-03T08:44:08;8.73;;;3.15;;
40971;SDS011;26701;47.408;19.174;2023-04-03T08:46:40;6.63;;;2.90;;
40971;SDS011;26701;47.408;19.174;2023-04-03T08:49:42;7.57;;;3.33;;
40971;SDS011;26701;47.408;19.174;2023-04-03T08:52:10;11.32;;;4.68;;
40971;SDS011;26701;47.408;19.174;2023-04-03T08:57:09;9.13;;;3.67;;
40971;SDS011;26701;47.408;19.174;2023-04-03T08:59:37;6.20;;;3.15;;
40971;SDS011;26701;47.408;19.174;2023-04-03T09:02:12;8.35;;;3.58;;
40971;SDS011;26701;47.408;19.174;2023-04-03T09:04:43;5.15;;;3.15;;
40971;SDS011;26701;47.408;19.174;2023-04-03T09:07:13;7.18;;;3.50;;
40971;SDS011;26701;47.408;19.174;2023-04-03T09:09:45;12.43;;;4.95;;
40971;SDS011;26701;47.408;19.174;2023-04-03T09:20:11;6.25;;;3.05;;
40971;SDS011;26701;47.408;19.174;2023-04-03T09:22:41;9.68;;;4.10;;
40971;SDS011;26701;47.408;19.174;2023-04-03T09:25:13;9.05;;;3.90;;
40971;SDS011;26701;47.408;19.174;2023-04-03T09:27:42;9.10;;;3.95;;
40971;SDS011;26701;47.408;19.174;2023-04-03T09:30:12;6.30;;;3.35;;
40971;SDS011;26701;47.408;19.174;2023-04-03T09:32:50;7.03;;;3.15;;
40971;SDS011;26701;47.408;19.174;2023-04-03T09:35:22;5.95;;;3.17;;
40971;SDS011;26701;47.408;19.174;2023-04-03T09:37:50;7.72;;;3.35;;
40971;SDS011;26701;47.408;19.174;2023-04-03T09:42:52;7.57;;;3.70;;
40971;SDS011;26701;47.408;19.174;2023-04-03T09:45:23;11.77;;;4.95;;
40971;SDS011;26701;47.408;19.174;2023-04-03T09:48:12;8.93;;;4.47;;
40971;SDS011;26701;47.408;19.174;2023-04-03T09:55:53;6.95;;;3.30;;
40971;SDS011;26701;47.408;19.174;2023-04-03T10:00:55;7.85;;;4.78;;
40971;SDS011;26701;47.408;19.174;2023-04-03T10:03:30;9.23;;;3.83;;
40971;SDS011;26701;47.408;19.174;2023-04-03T10:05:57;6.95;;;3.40;;
40971;SDS011;26701;47.408;19.174;2023-04-03T10:08:33;6.25;;;3.15;;
40971;SDS011;26701;47.408;19.174;2023-04-03T10:11:10;8.23;;;4.70;;
40971;SDS011;26701;47.408;19.174;2023-04-03T10:14:00;6.85;;;3.55;;
40971;SDS011;26701;47.408;19.174;2023-04-03T10:24:25;5.22;;;2.70;;
40971;SDS011;26701;47.408;19.174;2023-04-03T10:29:34;4.30;;;2.45;;
40971;SDS011;26701;47.408;19.174;2023-04-03T10:40:56;11.70;;;5.15;;
40971;SDS011;26701;47.408;19.174;2023-04-03T10:43:44;6.50;;;3.42;;
40971;SDS011;26701;47.408;19.174;2023-04-03T10:46:49;11.82;;;4.22;;
40971;SDS011;26701;47.408;19.174;2023-04-03T10:57:09;7.35;;;3.38;;
40971;SDS011;26701;47.408;19.174;2023-04-03T11:02:05;8.20;;;4.18;;
40971;SDS011;26701;47.408;19.174;2023-04-03T11:04:34;7.28;;;3.25;;
40971;SDS011;26701;47.408;19.174;2023-04-03T11:07:02;9.63;;;4.22;;
40971;SDS011;26701;47.408;19.174;2023-04-03T11:09:32;5.57;;;2.70;;
40971;SDS011;26701;47.408;19.174;2023-04-03T11:12:09;5.38;;;2.50;;
40971;SDS011;26701;47.408;19.174;2023-04-03T11:14:42;3.97;;;2.42;;
40971;SDS011;26701;47.408;19.174;2023-04-03T11:19:49;11.88;;;5.00;;
40971;SDS011;26701;47.408;19.174;2023-04-03T11:25:02;9.20;;;3.00;;
40971;SDS011;26701;47.408;19.174;2023-04-03T11:27:30;5.00;;;2.35;;
40971;SDS011;26701;47.408;19.174;2023-04-03T11:29:59;6.07;;;2.80;;
40971;SDS011;26701;47.408;19.174;2023-04-03T11:34:52;8.23;;;3.20;;
40971;SDS011;26701;47.408;19.174;2023-04-03T11:37:39;6.13;;;3.00;;
40971;SDS011;26701;47.408;19.174;2023-04-03T11:42:36;6.20;;;3.35;;
40971;SDS011;26701;47.408;19.174;2023-04-03T11:47:56;7.45;;;2.70;;
40971;SDS011;26701;47.408;19.174;2023-04-03T11:50:40;4.90;;;2.25;;
40971;SDS011;26701;47.408;19.174;2023-04-03T11:58:26;9.85;;;3.80;;
40971;SDS011;26701;47.408;19.174;2023-04-03T12:01:03;6.53;;;2.53;;
40971;SDS011;26701;47.408;19.174;2023-04-03T12:03:33;6.72;;;3.10;;
40971;SDS011;26701;47.408;19.174;2023-04-03T12:13:38;5.60;;;2.70;;
40971;SDS011;26701;47.408;19.174;2023-04-03T12:16:23;5.60;;;2.47;;
40971;SDS011;26701;47.408;19.174;2023-04-03T12:47:42;3.90;;;1.90;;
40971;SDS011;26701;47.408;19.174;2023-04-03T12:52:45;4.15;;;2.25;;
40971;SDS011;26701;47.408;19.174;2023-04-03T12:55:17;6.07;;;2.97;;
40971;SDS011;26701;47.408;19.174;2023-04-03T12:57:44;6.00;;;2.97;;
40971;SDS011;26701;47.408;19.174;2023-04-03T13:02:46;3.95;;;2.40;;
40971;SDS011;26701;47.408;19.174;2023-04-03T13:05:16;4.78;;;2.58;;
40971;SDS011;26701;47.408;19.174;2023-04-03T13:07:44;4.03;;;2.47;;
40971;SDS011;26701;47.408;19.174;2023-04-03T13:10:16;6.28;;;2.90;;
40971;SDS011;26701;47.408;19.174;2023-04-03T13:12:53;5.70;;;2.58;;
40971;SDS011;26701;47.408;19.174;2023-04-03T13:17:49;4.85;;;2.63;;
40971;SDS011;26701;47.408;19.174;2023-04-03T13:22:50;3.28;;;1.50;;
40971;SDS011;26701;47.408;19.174;2023-04-03T13:25:20;4.32;;;2.13;;
40971;SDS011;26701;47.408;19.174;2023-04-03T13:27:47;6.22;;;2.70;;
40971;SDS011;26701;47.408;19.174;2023-04-03T13:30:30;6.30;;;3.50;;
40971;SDS011;26701;47.408;19.174;2023-04-03T13:32:58;11.05;;;4.15;;
40971;SDS011;26701;47.408;19.174;2023-04-03T13:37:56;9.07;;;3.67;;
40971;SDS011;26701;47.408;19.174;2023-04-03T13:40:23;6.95;;;2.92;;
40971;SDS011;26701;47.408;19.174;2023-04-03T13:43:03;8.55;;;3.28;;
40971;SDS011;26701;47.408;19.174;2023-04-03T13:45:30;5.13;;;2.30;;
40971;SDS011;26701;47.408;19.174;2023-04-03T13:48:10;3.33;;;1.73;;
40971;SDS011;26701;47.408;19.174;2023-04-03T13:50:50;7.35;;;2.97;;
40971;SDS011;26701;47.408;19.174;2023-04-03T13:53:17;8.02;;;2.30;;
40971;SDS011;26701;47.408;19.174;2023-04-03T13:55:57;6.72;;;2.47;;
40971;SDS011;26701;47.408;19.174;2023-04-03T13:58:35;4.50;;;2.15;;
40971;SDS011;26701;47.408;19.174;2023-04-03T14:03:45;5.45;;;2.33;;
40971;SDS011;26701;47.408;19.174;2023-04-03T14:06:13;3.87;;;1.90;;
40971;SDS011;26701;47.408;19.174;2023-04-03T14:08:40;3.55;;;1.92;;
40971;SDS011;26701;47.408;19.174;2023-04-03T14:11:09;5.85;;;2.08;;
40971;SDS011;26701;47.408;19.174;2023-04-03T14:13:39;8.02;;;2.95;;
40971;SDS011;26701;47.408;19.174;2023-04-03T14:16:05;7.03;;;2.88;;
40971;SDS011;26701;47.408;19.174;2023-04-03T14:18:31;5.95;;;2.60;;
40971;SDS011;26701;47.408;19.174;2023-04-03T14:20:57;7.18;;;3.45;;
40971;SDS011;26701;47.408;19.174;2023-04-03T14:23:24;6.35;;;2.35;;
40971;SDS011;26701;47.408;19.174;2023-04-03T14:25:50;4.53;;;2.80;;
40971;SDS011;26701;47.408;19.174;2023-04-03T14:28:17;4.32;;;1.98;;
40971;SDS011;26701;47.408;19.174;2023-04-03T14:30:44;5.97;;;2.72;;
40971;SDS011;26701;47.408;19.174;2023-04-03T14:33:15;6.80;;;2.80;;
40971;SDS011;26701;47.408;19.174;2023-04-03T14:35:43;5.57;;;2.55;;
40971;SDS011;26701;47.408;19.174;2023-04-03T14:38:20;5.22;;;2.47;;
40971;SDS011;26701;47.408;19.174;2023-04-03T14:40:46;5.35;;;2.38;;
40971;SDS011;26701;47.408;19.174;2023-04-03T14:43:13;5.00;;;2.53;;
40971;SDS011;26701;47.408;19.174;2023-04-03T14:45:40;6.43;;;2.72;;
40971;SDS011;26701;47.408;19.174;2023-04-03T14:48:06;6.85;;;3.95;;
40971;SDS011;26701;47.408;19.174;2023-04-03T14:50:41;4.07;;;1.95;;
40971;SDS011;26701;47.408;19.174;2023-04-03T14:53:10;6.88;;;2.85;;
40971;SDS011;26701;47.408;19.174;2023-04-03T14:58:02;5.18;;;2.25;;
40971;SDS011;26701;47.408;19.174;2023-04-03T15:00:29;5.32;;;2.67;;
40971;SDS011;26701;47.408;19.174;2023-04-03T15:02:55;7.03;;;2.88;;
40971;SDS011;26701;47.408;19.174;2023-04-03T15:05:21;11.00;;;4.57;;
40971;SDS011;26701;47.408;19.174;2023-04-03T15:07:48;9.38;;;4.07;;
40971;SDS011;26701;47.408;19.174;2023-04-03T15:10:21;6.45;;;2.70;;
40971;SDS011;26701;47.408;19.174;2023-04-03T15:12:48;4.25;;;1.88;;
40971;SDS011;26701;47.408;19.174;2023-04-03T15:15:16;6.35;;;2.67;;
40971;SDS011;26701;47.408;19.174;2023-04-03T15:17:44;6.20;;;2.85;;
40971;SDS011;26701;47.408;19.174;2023-04-03T15:20:14;7.43;;;2.60;;
40971;SDS011;26701;47.408;19.174;2023-04-03T15:22:40;8.70;;;3.30;;
40971;SDS011;26701;47.408;19.174;2023-04-03T15:25:06;5.75;;;2.40;;
40971;SDS011;26701;47.408;19.174;2023-04-03T15:27:32;6.57;;;2.95;;
40971;SDS011;26701;47.408;19.174;2023-04-03T15:29:59;6.63;;;2.90;;
40971;SDS011;26701;47.408;19.174;2023-04-03T15:32:25;5.15;;;2.10;;
40971;SDS011;26701;47.408;19.174;2023-04-03T15:34:51;6.95;;;3.47;;
40971;SDS011;26701;47.408;19.174;2023-04-03T15:37:17;5.65;;;2.75;;
40971;SDS011;26701;47.408;19.174;2023-04-03T15:39:43;6.00;;;2.50;;
40971;SDS011;26701;47.408;19.174;2023-04-03T15:42:09;6.07;;;2.83;;
40971;SDS011;26701;47.408;19.174;2023-04-03T15:44:37;5.25;;;2.28;;
40971;SDS011;26701;47.408;19.174;2023-04-03T15:47:03;6.95;;;2.85;;
40971;SDS011;26701;47.408;19.174;2023-04-03T15:49:30;6.28;;;2.55;;
40971;SDS011;26701;47.408;19.174;2023-04-03T15:51:59;13.55;;;3.63;;
40971;SDS011;26701;47.408;19.174;2023-04-03T15:54:25;10.20;;;3.90;;
40971;SDS011;26701;47.408;19.174;2023-04-03T15:56:52;10.93;;;4.40;;
40971;SDS011;26701;47.408;19.174;2023-04-03T15:59:18;7.28;;;3.85;;
40971;SDS011;26701;47.408;19.174;2023-04-03T16:01:44;7.32;;;3.03;;
40971;SDS011;26701;47.408;19.174;2023-04-03T16:04:11;8.18;;;3.25;;
40971;SDS011;26701;47.408;19.174;2023-04-03T16:06:37;4.88;;;2.20;;
40971;SDS011;26701;47.408;19.174;2023-04-03T16:09:04;5.55;;;2.30;;
40971;SDS011;26701;47.408;19.174;2023-04-03T16:11:30;10.95;;;3.80;;
40971;SDS011;26701;47.408;19.174;2023-04-03T16:13:56;15.48;;;5.35;;
40971;SDS011;26701;47.408;19.174;2023-04-03T16:16:23;7.45;;;2.85;;
40971;SDS011;26701;47.408;19.174;2023-04-03T16:18:51;13.45;;;4.55;;
40971;SDS011;26701;47.408;19.174;2023-04-03T16:21:17;13.55;;;4.18;;
40971;SDS011;26701;47.408;19.174;2023-04-03T16:23:43;11.05;;;3.85;;
40971;SDS011;26701;47.408;19.174;2023-04-03T16:26:10;17.48;;;5.35;;
40971;SDS011;26701;47.408;19.174;2023-04-03T16:28:36;6.97;;;2.97;;
40971;SDS011;26701;47.408;19.174;2023-04-03T16:31:02;9.98;;;3.95;;
40971;SDS011;26701;47.408;19.174;2023-04-03T16:33:29;8.82;;;4.15;;
40971;SDS011;26701;47.408;19.174;2023-04-03T16:35:55;12.23;;;4.13;;
40971;SDS011;26701;47.408;19.174;2023-04-03T16:38:21;11.82;;;4.82;;
40971;SDS011;26701;47.408;19.174;2023-04-03T16:40:48;9.30;;;4.38;;
40971;SDS011;26701;47.408;19.174;2023-04-03T16:43:15;10.35;;;4.45;;